Time;durP1;ratioP1;P1;durP2;ratioP2;P2;SDS_P1;SDS_P2;PMS_P1;PMS_P2;Temp;Humidity;BMP_temperature;BMP_pressure;BME280_temperature;BME280_humidity;BME280_pressure;Samples;Min_cycle;Max_cycle;Signal;HPM_P1;HPM_P2
2022/01/23 00:00:45;;;;;;;66.90;40.80;;;4.80;99.90;;;;;;5056754;28;20520;-62
2022/01/23 00:03:17;;;;;;;77.10;45.53;;;4.80;99.90;;;;;;5056878;28;20833;-62
2022/01/23 00:05:45;;;;;;;66.40;42.77;;;4.80;99.90;;;;;;5057028;28;20803;-63
2022/01/23 00:08:14;;;;;;;71.03;43.90;;;4.70;99.90;;;;;;5056890;28;20454;-63
2022/01/23 00:10:42;;;;;;;67.80;44.20;;;4.90;99.90;;;;;;5048998;28;20554;-60
2022/01/23 00:13:13;;;;;;;68.50;41.03;;;4.80;99.90;;;;;;5049086;28;20848;-61
2022/01/23 00:18:28;;;;;;;65.30;42.30;;;4.80;99.90;;;;;;5045058;28;20438;-61
2022/01/23 00:20:57;;;;;;;73.13;44.33;;;4.80;99.90;;;;;;5053554;28;20565;-63
2022/01/23 00:23:32;;;;;;;72.37;45.10;;;4.80;99.90;;;;;;5052750;28;20482;-62
2022/01/23 00:31:33;;;;;;;66.90;40.27;;;4.80;99.90;;;;;;5050569;28;20444;-63
2022/01/23 00:34:01;;;;;;;73.90;43.10;;;4.80;99.90;;;;;;5043991;28;20473;-63
2022/01/23 00:36:31;;;;;;;69.93;42.67;;;4.90;99.90;;;;;;5055868;28;20528;-62
2022/01/23 00:38:59;;;;;;;73.40;42.70;;;4.80;99.90;;;;;;5052760;28;20506;-62
2022/01/23 00:41:26;;;;;;;82.37;43.20;;;4.70;99.90;;;;;;5051965;28;20441;-62
2022/01/23 00:43:54;;;;;;;80.33;45.93;;;4.80;99.90;;;;;;5056737;28;20466;-63
2022/01/23 00:46:32;;;;;;;70.57;42.33;;;4.80;99.90;;;;;;5054301;28;20502;-63
2022/01/23 00:49:24;;;;;;;71.87;42.53;;;4.70;99.90;;;;;;5048471;28;20466;-63
2022/01/23 00:51:55;;;;;;;73.97;42.83;;;4.70;99.90;;;;;;5053495;28;20470;-63
2022/01/23 00:54:26;;;;;;;71.07;41.30;;;4.70;99.90;;;;;;5055455;28;20488;-63
2022/01/23 00:56:56;;;;;;;66.03;40.47;;;4.80;99.90;;;;;;5055683;28;20437;-63
2022/01/23 00:59:23;;;;;;;70.23;41.77;;;4.70;99.90;;;;;;5053059;28;20471;-63
2022/01/23 01:01:50;;;;;;;69.33;39.97;;;4.80;99.90;;;;;;5040510;28;20484;-62
2022/01/23 01:04:18;;;;;;;70.17;42.20;;;4.80;99.90;;;;;;5047858;28;20467;-62
2022/01/23 01:06:45;;;;;;;68.63;38.77;;;4.70;99.90;;;;;;5054978;28;20824;-62
2022/01/23 01:09:14;;;;;;;66.40;39.40;;;4.70;99.90;;;;;;5056560;28;20742;-63
2022/01/23 01:11:58;;;;;;;65.27;38.60;;;4.70;99.90;;;;;;5056491;28;20490;-61
2022/01/23 01:17:16;;;;;;;63.80;37.27;;;4.70;99.90;;;;;;5042985;28;20740;-62
2022/01/23 01:30:54;;;;;;;62.47;36.03;;;4.70;99.90;;;;;;5057829;28;20419;-63
2022/01/23 01:33:31;;;;;;;62.00;34.27;;;4.70;99.90;;;;;;5059618;28;20562;-63
2022/01/23 01:36:03;;;;;;;63.37;37.57;;;4.80;99.90;;;;;;5057199;28;20468;-63
2022/01/23 01:38:33;;;;;;;62.50;37.67;;;4.80;99.90;;;;;;5041059;28;20451;-62
2022/01/23 01:41:03;;;;;;;63.23;35.50;;;4.80;99.90;;;;;;5044860;28;20442;-61
2022/01/23 01:43:30;;;;;;;56.50;34.00;;;4.80;99.90;;;;;;5041224;28;20467;-63
2022/01/23 01:45:57;;;;;;;62.37;37.23;;;4.80;99.90;;;;;;5048960;28;20491;-63
2022/01/23 01:48:25;;;;;;;57.37;34.40;;;4.70;99.90;;;;;;5055515;28;20516;-63
2022/01/23 01:50:54;;;;;;;60.43;35.33;;;4.70;99.90;;;;;;5048120;28;20470;-63
2022/01/23 01:53:26;;;;;;;64.70;37.40;;;4.80;99.90;;;;;;5054481;28;20488;-63
2022/01/23 01:55:57;;;;;;;66.73;37.60;;;4.80;99.90;;;;;;5058830;28;20465;-63
2022/01/23 01:58:56;;;;;;;66.07;36.50;;;4.80;99.90;;;;;;5059004;28;20486;-63
2022/01/23 02:09:37;;;;;;;60.63;32.80;;;4.80;99.90;;;;;;5043232;28;20442;-62
2022/01/23 02:12:25;;;;;;;60.07;32.97;;;4.80;99.90;;;;;;5039353;28;20445;-63
2022/01/23 02:15:14;;;;;;;54.37;30.77;;;4.80;99.90;;;;;;5039385;28;20938;-63
2022/01/23 02:17:55;;;;;;;52.47;29.03;;;4.80;99.90;;;;;;5050669;28;20628;-62
2022/01/23 02:23:25;;;;;;;48.70;28.50;;;4.80;99.90;;;;;;5058405;28;20506;-62
2022/01/23 02:50:55;;;;;;;49.17;29.50;;;4.70;99.90;;;;;;5015617;28;20462;-61
2022/01/23 02:53:37;;;;;;;44.80;27.20;;;4.70;99.90;;;;;;5040037;28;20462;-61
2022/01/23 02:56:15;;;;;;;49.87;27.03;;;4.70;99.90;;;;;;5054325;28;20473;-63
2022/01/23 02:58:56;;;;;;;50.60;30.70;;;4.70;99.90;;;;;;5053559;28;20469;-62
2022/01/23 03:01:27;;;;;;;49.23;27.47;;;4.70;99.90;;;;;;5038610;28;20470;-63
2022/01/23 03:03:59;;;;;;;53.97;28.73;;;4.70;99.90;;;;;;5038842;28;20771;-63
2022/01/23 03:06:52;;;;;;;50.07;29.03;;;4.70;99.90;;;;;;5047513;28;20486;-63
2022/01/23 03:12:19;;;;;;;50.83;29.27;;;4.70;99.90;;;;;;5055801;28;20446;-63
2022/01/23 03:14:53;;;;;;;49.17;29.00;;;4.70;99.90;;;;;;5042101;28;20812;-62
2022/01/23 03:28:26;;;;;;;48.40;28.57;;;4.70;99.90;;;;;;5056737;28;20579;-62
2022/01/23 03:31:07;;;;;;;57.40;30.83;;;4.70;99.90;;;;;;5057722;28;20462;-62
2022/01/23 03:33:39;;;;;;;54.50;31.33;;;4.70;99.90;;;;;;5058436;28;20588;-63
2022/01/23 03:36:07;;;;;;;55.37;31.40;;;4.70;99.90;;;;;;5066272;28;20910;-63
2022/01/23 03:38:34;;;;;;;55.20;31.40;;;4.70;99.90;;;;;;5061787;28;20553;-62
2022/01/23 03:41:02;;;;;;;55.23;30.93;;;4.70;99.90;;;;;;5057683;28;20433;-62
2022/01/23 03:43:35;;;;;;;52.47;31.17;;;4.70;99.90;;;;;;5057767;28;20921;-61
2022/01/23 03:46:21;;;;;;;53.83;30.53;;;4.70;99.90;;;;;;5057009;28;20558;-62
2022/01/23 03:51:37;;;;;;;52.93;31.17;;;4.70;99.90;;;;;;5050647;28;20421;-63
2022/01/23 03:54:04;;;;;;;60.67;33.83;;;4.70;99.90;;;;;;5058585;28;20455;-62
2022/01/23 03:56:32;;;;;;;50.73;32.53;;;4.70;99.90;;;;;;5059028;28;20875;-63
2022/01/23 03:59:00;;;;;;;58.37;33.80;;;4.70;99.90;;;;;;5058294;28;20800;-63
2022/01/23 04:01:27;;;;;;;59.20;32.37;;;4.70;99.90;;;;;;5058874;28;20458;-63
2022/01/23 04:03:59;;;;;;;57.90;32.53;;;4.70;99.90;;;;;;5058964;28;20458;-63
2022/01/23 04:06:26;;;;;;;56.33;31.87;;;4.60;99.90;;;;;;5058286;28;20490;-62
2022/01/23 04:08:53;;;;;;;55.37;30.13;;;4.60;99.90;;;;;;5058536;28;20466;-62
2022/01/23 04:11:20;;;;;;;51.80;30.10;;;4.60;99.90;;;;;;5058922;28;20494;-63
2022/01/23 04:13:54;;;;;;;60.80;33.33;;;4.70;99.90;;;;;;5058543;28;20470;-63
2022/01/23 04:19:17;;;;;;;68.23;35.90;;;4.60;99.90;;;;;;5057654;28;20442;-63
2022/01/23 04:33:09;;;;;;;58.17;34.23;;;4.50;99.90;;;;;;5058492;28;20465;-62
2022/01/23 04:45:09;;;;;;;59.07;32.60;;;4.50;99.90;;;;;;5062839;28;20754;-63
2022/01/23 05:00:34;;;;;;;52.00;30.53;;;4.50;99.90;;;;;;5057751;28;20933;-63
2022/01/23 05:03:47;;;;;;;53.03;30.10;;;4.60;99.90;;;;;;5057373;28;20437;-62
2022/01/23 05:06:07;;;;;;;50.60;28.87;;;4.50;99.90;;;;;;5060264;28;20441;-62
2022/01/23 05:08:36;;;;;;;48.77;28.07;;;4.50;99.90;;;;;;5060867;28;20457;-62
2022/01/23 05:11:06;;;;;;;51.77;28.40;;;4.50;99.90;;;;;;5060238;28;20439;-62
2022/01/23 05:13:33;;;;;;;50.07;30.03;;;4.60;99.90;;;;;;5075811;28;20458;-62
2022/01/23 05:16:00;;;;;;;52.60;29.80;;;4.60;99.90;;;;;;5069812;28;20939;-62
2022/01/23 05:18:28;;;;;;;51.87;30.80;;;4.60;99.90;;;;;;5081188;28;20449;-62
2022/01/23 05:21:07;;;;;;;53.33;30.00;;;4.60;99.90;;;;;;5080893;28;20450;-62
2022/01/23 05:23:34;;;;;;;53.20;29.30;;;4.60;99.90;;;;;;5062229;28;20477;-62
2022/01/23 05:26:01;;;;;;;46.50;28.70;;;4.60;99.90;;;;;;5061419;28;20506;-62
2022/01/23 05:28:28;;;;;;;46.53;26.53;;;4.60;99.90;;;;;;5061809;28;20493;-62
2022/01/23 05:30:55;;;;;;;45.57;27.53;;;4.60;99.90;;;;;;5061889;28;20466;-62
2022/01/23 05:33:22;;;;;;;48.20;26.50;;;4.60;99.90;;;;;;5061711;28;20490;-62
2022/01/23 05:35:50;;;;;;;46.60;27.23;;;4.60;99.90;;;;;;5061941;28;20508;-62
2022/01/23 05:38:17;;;;;;;48.37;28.47;;;4.50;99.90;;;;;;5062047;28;20462;-62
2022/01/23 05:40:44;;;;;;;41.80;25.10;;;4.50;99.90;;;;;;5061945;28;20444;-62
2022/01/23 05:43:11;;;;;;;47.10;26.70;;;4.50;99.90;;;;;;5061328;28;20472;-62
2022/01/23 05:45:41;;;;;;;46.37;27.93;;;4.50;99.90;;;;;;5061597;28;20519;-62
2022/01/23 05:48:09;;;;;;;47.20;27.53;;;4.50;99.90;;;;;;5050978;28;20585;-62
2022/01/23 05:50:36;;;;;;;42.63;25.37;;;4.50;99.90;;;;;;5041110;28;20916;-62
2022/01/23 05:53:05;;;;;;;45.27;26.57;;;4.50;99.90;;;;;;5041459;28;20826;-62
2022/01/23 05:55:32;;;;;;;45.90;26.87;;;4.50;99.90;;;;;;5060859;28;20441;-62
2022/01/23 05:58:02;;;;;;;42.73;25.20;;;4.50;99.90;;;;;;5060155;28;20890;-62
2022/01/23 06:00:29;;;;;;;47.90;25.77;;;4.50;99.90;;;;;;5060834;28;20466;-62
2022/01/23 06:02:56;;;;;;;46.07;27.97;;;4.50;99.90;;;;;;5061151;28;20493;-62
2022/01/23 06:05:23;;;;;;;47.23;27.77;;;4.50;99.90;;;;;;5059941;28;20466;-62
2022/01/23 06:07:51;;;;;;;53.57;29.20;;;4.40;99.90;;;;;;5060048;28;20510;-62
2022/01/23 06:10:23;;;;;;;41.73;24.43;;;4.50;99.90;;;;;;5060452;28;20471;-62
2022/01/23 06:12:51;;;;;;;43.90;26.20;;;4.50;99.90;;;;;;5060812;28;20873;-62
2022/01/23 06:15:19;;;;;;;43.00;27.17;;;4.50;99.90;;;;;;5060761;28;20462;-62
2022/01/23 06:17:46;;;;;;;49.20;27.20;;;4.50;99.90;;;;;;5060423;28;20753;-62
2022/01/23 06:20:14;;;;;;;45.17;25.53;;;4.50;99.90;;;;;;5060673;28;20895;-62
2022/01/23 06:22:43;;;;;;;46.80;25.10;;;4.50;99.90;;;;;;5060534;28;20544;-62
2022/01/23 06:25:12;;;;;;;46.27;26.73;;;4.50;99.90;;;;;;5060486;28;20520;-62
2022/01/23 06:27:41;;;;;;;44.40;25.77;;;4.50;99.90;;;;;;5060714;28;20490;-62
2022/01/23 06:30:09;;;;;;;40.97;25.33;;;4.50;99.90;;;;;;5060853;28;20486;-62
2022/01/23 06:32:36;;;;;;;42.20;25.83;;;4.50;99.90;;;;;;5060364;28;20543;-62
2022/01/23 06:35:04;;;;;;;46.83;26.53;;;4.50;99.90;;;;;;5060316;28;20463;-63
2022/01/23 06:37:30;;;;;;;44.43;24.93;;;4.50;99.90;;;;;;5060268;28;20462;-62
2022/01/23 06:39:57;;;;;;;50.43;28.67;;;4.50;99.90;;;;;;5060003;28;20466;-62
2022/01/23 06:42:24;;;;;;;46.60;26.57;;;4.50;99.90;;;;;;5059961;28;20520;-62
2022/01/23 06:44:54;;;;;;;42.80;25.20;;;4.50;99.90;;;;;;5059975;28;20441;-62
2022/01/23 06:47:21;;;;;;;42.53;26.50;;;4.50;99.90;;;;;;5058961;28;20544;-62
2022/01/23 06:49:48;;;;;;;46.13;25.90;;;4.50;99.90;;;;;;5059622;28;20489;-62
2022/01/23 06:52:15;;;;;;;43.53;26.67;;;4.60;99.90;;;;;;5059758;28;20454;-62
2022/01/23 06:54:44;;;;;;;41.47;26.10;;;4.50;99.90;;;;;;5059856;28;20583;-62
2022/01/23 06:57:11;;;;;;;51.07;26.97;;;4.50;99.90;;;;;;5059549;28;20492;-62
2022/01/23 06:59:38;;;;;;;47.60;26.73;;;4.50;99.90;;;;;;5059482;28;20909;-62
2022/01/23 07:02:07;;;;;;;46.40;26.33;;;4.50;99.90;;;;;;5058812;28;20466;-62
2022/01/23 07:04:34;;;;;;;44.40;26.70;;;4.50;99.90;;;;;;5059510;28;20462;-62
2022/01/23 07:07:01;;;;;;;48.80;26.77;;;4.50;99.90;;;;;;5058133;28;20441;-62
2022/01/23 07:09:28;;;;;;;48.37;28.43;;;4.50;99.90;;;;;;5059248;28;20516;-62
2022/01/23 07:11:55;;;;;;;42.93;24.60;;;4.50;99.90;;;;;;5059149;28;20462;-62
2022/01/23 07:14:22;;;;;;;49.70;28.67;;;4.50;99.90;;;;;;5059689;28;20437;-63
2022/01/23 07:16:49;;;;;;;47.43;27.47;;;4.50;99.90;;;;;;5059724;28;20736;-62
2022/01/23 07:19:18;;;;;;;44.20;25.97;;;4.50;99.90;;;;;;5058788;28;20486;-62
2022/01/23 07:21:45;;;;;;;46.47;27.50;;;4.50;99.90;;;;;;5058969;28;20473;-63
2022/01/23 07:24:11;;;;;;;47.53;25.77;;;4.50;99.90;;;;;;5059194;28;20891;-62
2022/01/23 07:26:39;;;;;;;52.83;29.50;;;4.50;99.90;;;;;;5058983;28;20513;-62
2022/01/23 07:29:07;;;;;;;50.13;27.83;;;4.50;99.90;;;;;;5057461;28;20521;-62
2022/01/23 07:34:16;;;;;;;51.77;28.73;;;4.60;99.90;;;;;;5049770;28;20434;-62
2022/01/23 07:36:43;;;;;;;49.47;27.37;;;4.60;99.90;;;;;;5073162;28;20452;-62
2022/01/23 07:39:10;;;;;;;47.03;27.23;;;4.60;99.90;;;;;;5070486;28;20484;-62
2022/01/23 07:41:37;;;;;;;46.07;27.90;;;4.60;99.90;;;;;;5058957;28;20508;-62
2022/01/23 07:44:05;;;;;;;46.03;26.07;;;4.60;99.90;;;;;;5058713;28;20789;-62
2022/01/23 07:46:32;;;;;;;52.67;28.50;;;4.50;99.90;;;;;;5058117;28;20458;-62
2022/01/23 07:48:59;;;;;;;45.67;26.97;;;4.50;99.90;;;;;;5055896;28;20498;-62
2022/01/23 07:51:27;;;;;;;46.60;27.57;;;4.50;99.90;;;;;;5058747;28;20462;-62
2022/01/23 07:53:54;;;;;;;48.07;26.60;;;4.50;99.90;;;;;;5058121;28;20959;-62
2022/01/23 07:56:22;;;;;;;45.73;26.23;;;4.50;99.90;;;;;;5058491;28;20520;-62
2022/01/23 07:58:49;;;;;;;49.80;26.10;;;4.60;99.90;;;;;;5058578;28;20516;-63
2022/01/23 08:01:16;;;;;;;51.60;32.17;;;4.60;99.90;;;;;;5058164;28;20466;-62
2022/01/23 08:03:42;;;;;;;56.50;31.73;;;4.60;99.90;;;;;;5058539;28;20486;-62
2022/01/23 08:06:11;;;;;;;52.30;27.10;;;4.60;99.90;;;;;;5061980;28;20453;-62
2022/01/23 08:08:40;;;;;;;49.67;26.27;;;4.60;99.90;;;;;;5038757;28;20501;-62
2022/01/23 08:11:08;;;;;;;53.20;29.63;;;4.60;99.90;;;;;;5048811;28;20462;-62
2022/01/23 08:13:35;;;;;;;49.30;26.63;;;4.70;99.90;;;;;;5058082;28;20877;-63
2022/01/23 08:16:02;;;;;;;50.60;26.50;;;4.70;99.90;;;;;;5058705;28;20462;-62
2022/01/23 08:18:32;;;;;;;51.97;28.37;;;4.70;99.90;;;;;;5058251;28;20459;-62
2022/01/23 08:20:59;;;;;;;47.97;26.17;;;4.80;99.90;;;;;;5059223;28;20535;-63
2022/01/23 08:23:27;;;;;;;45.60;27.10;;;4.70;99.90;;;;;;5058928;28;20808;-63
2022/01/23 08:25:55;;;;;;;47.80;24.20;;;4.70;99.90;;;;;;5058252;28;20463;-62
2022/01/23 08:28:25;;;;;;;53.40;27.97;;;4.80;99.90;;;;;;5058304;28;20533;-62
2022/01/23 08:30:52;;;;;;;48.80;25.73;;;4.90;99.90;;;;;;5057484;28;20785;-62
2022/01/23 08:33:21;;;;;;;44.47;25.73;;;4.90;99.90;;;;;;5055310;28;20472;-62
2022/01/23 08:35:48;;;;;;;49.17;25.97;;;5.00;99.90;;;;;;5057840;28;20458;-62
2022/01/23 08:38:15;;;;;;;49.80;26.47;;;4.90;99.90;;;;;;5050311;28;20517;-62
2022/01/23 08:40:47;;;;;;;48.80;29.07;;;5.00;99.90;;;;;;5042056;28;20777;-63
2022/01/23 08:43:17;;;;;;;42.90;25.53;;;5.00;99.90;;;;;;5057444;28;20473;-63
2022/01/23 08:45:44;;;;;;;44.73;24.93;;;5.00;99.90;;;;;;5062229;28;20747;-63
2022/01/23 08:48:14;;;;;;;46.43;27.97;;;5.00;99.90;;;;;;5061747;28;20468;-63
2022/01/23 08:50:41;;;;;;;48.00;27.40;;;5.00;99.90;;;;;;5055770;28;20462;-62
2022/01/23 08:53:12;;;;;;;48.33;26.27;;;5.00;99.90;;;;;;5061024;28;20466;-63
2022/01/23 08:55:41;;;;;;;44.30;24.70;;;5.10;99.90;;;;;;5061526;28;20469;-63
2022/01/23 08:58:11;;;;;;;48.97;28.10;;;5.10;99.90;;;;;;5061661;28;20458;-63
2022/01/23 09:00:40;;;;;;;42.47;25.80;;;5.10;99.90;;;;;;5061228;28;20501;-63
2022/01/23 09:03:08;;;;;;;45.60;27.60;;;5.10;99.90;;;;;;5061155;28;20493;-63
2022/01/23 09:05:35;;;;;;;40.90;25.93;;;5.10;99.90;;;;;;5061944;28;20458;-63
2022/01/23 09:08:02;;;;;;;46.40;27.30;;;5.20;99.90;;;;;;5061028;28;20495;-63
2022/01/23 09:10:39;;;;;;;49.97;28.70;;;5.20;99.90;;;;;;5061863;28;20494;-63
2022/01/23 09:13:10;;;;;;;44.53;26.27;;;5.30;99.90;;;;;;5061274;28;20531;-63
2022/01/23 09:15:44;;;;;;;46.80;28.20;;;5.30;99.90;;;;;;5062131;28;20937;-63
2022/01/23 09:18:11;;;;;;;43.77;26.00;;;5.30;99.90;;;;;;5060874;28;20441;-63
2022/01/23 09:20:39;;;;;;;45.87;25.70;;;5.20;99.90;;;;;;5060851;28;20480;-63
2022/01/23 09:23:07;;;;;;;40.43;25.97;;;5.30;99.90;;;;;;5061132;28;20490;-63
2022/01/23 09:25:34;;;;;;;42.87;23.53;;;5.30;99.90;;;;;;5060743;28;20467;-63
2022/01/23 09:28:05;;;;;;;44.60;26.00;;;5.30;99.90;;;;;;5060485;28;20490;-63
2022/01/23 09:30:35;;;;;;;40.30;24.00;;;5.30;99.90;;;;;;5060691;28;20732;-63
2022/01/23 09:33:04;;;;;;;41.80;26.70;;;5.40;99.90;;;;;;5060321;28;20473;-63
2022/01/23 09:35:31;;;;;;;44.60;25.83;;;5.30;99.90;;;;;;5065001;28;20802;-63
2022/01/23 09:37:59;;;;;;;44.03;26.37;;;5.30;99.90;;;;;;5049055;28;20462;-63
2022/01/23 09:40:26;;;;;;;47.53;28.40;;;5.40;99.90;;;;;;5057128;28;20455;-62
2022/01/23 09:43:00;;;;;;;51.60;31.73;;;5.40;99.90;;;;;;5059119;28;20494;-63
2022/01/23 09:45:31;;;;;;;47.73;27.27;;;5.40;99.90;;;;;;5055079;28;20492;-63
2022/01/23 09:48:07;;;;;;;46.87;27.20;;;5.40;99.90;;;;;;5060716;28;20464;-63
2022/01/23 09:50:36;;;;;;;44.20;27.30;;;5.40;99.90;;;;;;5048194;28;20467;-63
2022/01/23 09:53:03;;;;;;;47.13;27.63;;;5.50;99.90;;;;;;5041194;28;20800;-63
2022/01/23 09:55:33;;;;;;;45.23;27.30;;;5.50;99.90;;;;;;5050293;28;20441;-63
2022/01/23 09:58:01;;;;;;;44.50;26.40;;;5.60;99.90;;;;;;5060339;28;20465;-63
2022/01/23 10:00:30;;;;;;;41.13;24.80;;;5.60;99.90;;;;;;5054873;28;20480;-63
2022/01/23 10:02:57;;;;;;;41.90;25.87;;;5.60;99.90;;;;;;5059377;28;20462;-62
2022/01/23 10:05:29;;;;;;;39.10;24.30;;;5.60;99.90;;;;;;5055279;28;20511;-62
2022/01/23 10:07:59;;;;;;;45.47;25.90;;;5.60;99.90;;;;;;5059474;28;20466;-62
2022/01/23 10:10:35;;;;;;;45.10;26.07;;;5.60;99.90;;;;;;5058959;28;20466;-62
2022/01/23 10:13:02;;;;;;;40.37;25.50;;;5.70;99.90;;;;;;5059812;28;20573;-62
2022/01/23 10:15:32;;;;;;;44.83;26.13;;;5.80;99.90;;;;;;5059759;28;20516;-62
2022/01/23 10:18:00;;;;;;;41.93;24.90;;;5.90;99.90;;;;;;5059390;28;20466;-62
2022/01/23 10:20:29;;;;;;;43.00;26.67;;;5.90;99.90;;;;;;5058782;28;20466;-62
2022/01/23 10:22:57;;;;;;;44.37;26.53;;;6.00;99.90;;;;;;5058471;28;20472;-62
2022/01/23 10:25:26;;;;;;;42.63;26.17;;;6.00;99.90;;;;;;5055017;28;20466;-62
2022/01/23 10:28:06;;;;;;;40.10;24.53;;;6.10;99.90;;;;;;5047025;28;20490;-62
2022/01/23 10:30:37;;;;;;;42.67;27.43;;;6.10;99.90;;;;;;5050687;28;20925;-62
2022/01/23 10:33:10;;;;;;;44.37;26.10;;;6.20;99.90;;;;;;5049729;28;20465;-62
2022/01/23 10:35:57;;;;;;;42.53;26.53;;;6.20;99.90;;;;;;5050678;28;20968;-62
2022/01/23 10:38:25;;;;;;;46.07;25.30;;;6.20;99.90;;;;;;5058596;28;20817;-63
2022/01/23 10:41:06;;;;;;;39.80;24.77;;;6.20;99.90;;;;;;5049480;28;20942;-62
2022/01/23 10:46:52;;;;;;;41.00;23.97;;;6.10;99.90;;;;;;5056263;28;20893;-62
2022/01/23 10:49:25;;;;;;;43.77;25.77;;;6.20;99.90;;;;;;5046160;28;20494;-62
2022/01/23 10:51:55;;;;;;;45.90;25.97;;;6.10;99.90;;;;;;5057643;28;20506;-62
2022/01/23 10:54:24;;;;;;;39.73;25.40;;;6.20;99.90;;;;;;5058819;28;20472;-62
2022/01/23 10:57:06;;;;;;;35.03;24.00;;;6.20;99.90;;;;;;5058323;28;20515;-62
2022/01/23 10:59:42;;;;;;;42.37;25.73;;;6.20;99.90;;;;;;5045848;28;20487;-62
2022/01/23 11:02:11;;;;;;;42.20;26.00;;;6.20;99.90;;;;;;5055645;28;20891;-62
2022/01/23 11:04:55;;;;;;;41.20;24.87;;;6.30;99.90;;;;;;5068006;28;20470;-62
2022/01/23 11:07:30;;;;;;;39.30;25.60;;;6.30;99.90;;;;;;5061099;28;20512;-62
2022/01/23 11:09:59;;;;;;;44.50;26.67;;;6.40;99.90;;;;;;5062397;28;20788;-62
2022/01/23 11:18:08;;;;;;;40.60;25.03;;;6.50;99.90;;;;;;5038396;28;20450;-62
2022/01/23 11:20:41;;;;;;;37.60;24.60;;;6.50;99.90;;;;;;5052689;28;20889;-63
2022/01/23 11:23:18;;;;;;;49.27;32.70;;;6.50;99.90;;;;;;5066740;28;20481;-62
2022/01/23 11:26:06;;;;;;;31.30;22.13;;;6.50;99.90;;;;;;5065190;28;20586;-62
2022/01/23 11:28:36;;;;;;;38.83;23.63;;;6.50;99.90;;;;;;5054528;28;20576;-62
2022/01/23 11:31:07;;;;;;;32.57;19.97;;;6.50;99.90;;;;;;5052832;28;20787;-61
2022/01/23 11:33:34;;;;;;;27.60;18.10;;;6.60;99.90;;;;;;5048777;28;20560;-61
2022/01/23 11:36:02;;;;;;;33.30;20.80;;;6.70;99.90;;;;;;5047457;28;20458;-61
2022/01/23 11:38:34;;;;;;;33.70;21.60;;;6.70;99.90;;;;;;5046937;28;20771;-61
2022/01/23 11:54:58;;;;;;;32.70;20.57;;;7.00;99.90;;;;;;5052680;28;20969;-61
2022/01/23 11:57:46;;;;;;;30.03;19.30;;;7.10;99.90;;;;;;5048954;28;20601;-61
2022/01/23 12:00:24;;;;;;;27.77;17.37;;;7.10;99.90;;;;;;5043731;28;20524;-61
2022/01/23 12:03:12;;;;;;;24.20;16.33;;;7.20;99.90;;;;;;5041726;28;20464;-61
2022/01/23 12:05:43;;;;;;;22.90;15.13;;;7.20;99.90;;;;;;5062307;28;20742;-61
2022/01/23 12:08:38;;;;;;;22.40;15.63;;;7.10;99.90;;;;;;5061492;28;20477;-61
2022/01/23 12:11:40;;;;;;;21.07;13.43;;;7.20;99.90;;;;;;5049101;28;20516;-61
2022/01/23 12:17:21;;;;;;;15.37;11.13;;;7.30;99.90;;;;;;5066177;28;20508;-61
2022/01/23 12:19:55;;;;;;;13.80;10.00;;;7.30;99.90;;;;;;5065546;28;20478;-61
2022/01/23 12:22:36;;;;;;;16.20;11.03;;;7.30;71.10;;;;;;5062054;28;20581;-61
2022/01/23 12:25:21;;;;;;;18.43;10.70;;;7.40;1.00;;;;;;5042311;28;20909;-61
2022/01/23 12:28:12;;;;;;;10.80;7.97;;;7.50;46.80;;;;;;5057304;28;20752;-61
2022/01/23 12:30:43;;;;;;;7.70;6.33;;;7.40;1.00;;;;;;5047960;28;20548;-61
2022/01/23 12:33:47;;;;;;;5.33;4.63;;;7.50;1.00;;;;;;5037478;28;20471;-61
2022/01/23 12:36:24;;;;;;;6.33;4.43;;;7.60;99.90;;;;;;5046200;28;20465;-60
2022/01/23 12:38:55;;;;;;;8.10;5.07;;;7.60;99.90;;;;;;5056929;28;20486;-61
2022/01/23 12:41:33;;;;;;;7.00;4.90;;;7.40;8.10;;;;;;5056525;28;20468;-61
2022/01/23 12:44:06;;;;;;;7.40;5.40;;;7.40;1.00;;;;;;5056213;28;20455;-61
2022/01/23 12:46:41;;;;;;;6.90;5.37;;;7.30;1.00;;;;;;5055355;28;20456;-61
2022/01/23 12:49:33;;;;;;;5.43;4.77;;;7.50;92.10;;;;;;5056963;28;20812;-61
2022/01/23 12:52:32;;;;;;;5.87;4.83;;;7.40;1.00;;;;;;5037860;28;20841;-61
2022/01/23 12:55:03;;;;;;;7.60;6.43;;;7.40;1.00;;;;;;5057960;28;20519;-57
2022/01/23 12:57:36;;;;;;;9.90;6.90;;;7.30;1.00;;;;;;5056269;28;20883;-57
2022/01/23 13:00:09;;;;;;;7.00;5.97;;;7.30;1.00;;;;;;5056063;28;20458;-60
2022/01/23 13:02:43;;;;;;;7.40;5.63;;;7.30;1.00;;;;;;5056909;28;20461;-60
2022/01/23 13:05:14;;;;;;;5.83;4.20;;;7.20;1.00;;;;;;5056230;28;20519;-59
2022/01/23 13:07:47;;;;;;;8.00;4.70;;;7.10;1.00;;;;;;5055514;28;20961;-58
2022/01/23 13:10:29;;;;;;;4.83;4.40;;;6.90;1.00;;;;;;5055245;28;20557;-61
2022/01/23 13:13:07;;;;;;;5.97;4.70;;;6.80;1.00;;;;;;5054114;28;20866;-59
2022/01/23 13:16:04;;;;;;;5.07;4.57;;;6.70;1.00;;;;;;5054632;28;20778;-60
2022/01/23 13:18:44;;;;;;;5.27;4.77;;;6.70;1.00;;;;;;5055485;28;20462;-61
2022/01/23 13:32:37;;;;;;;9.23;5.60;;;6.70;1.00;;;;;;5057373;28;20430;-59
2022/01/23 13:35:13;;;;;;;7.10;5.50;;;6.80;1.00;;;;;;5056026;28;20466;-57
2022/01/23 13:37:42;;;;;;;8.43;7.10;;;6.70;1.00;;;;;;5057814;28;20969;-61
2022/01/23 13:40:13;;;;;;;18.37;11.47;;;6.70;1.00;;;;;;5054339;28;20455;-60
2022/01/23 13:49:03;;;;;;;10.70;7.47;;;6.70;1.00;;;;;;5056220;28;20869;-59
2022/01/23 13:57:32;;;;;;;30.50;19.13;;;6.80;1.00;;;;;;5044949;28;20441;-60
2022/01/23 14:00:00;;;;;;;10.80;7.47;;;6.70;1.00;;;;;;5055584;28;20437;-59
2022/01/23 14:02:34;;;;;;;10.57;6.10;;;6.70;1.00;;;;;;5058800;28;20548;-58
2022/01/23 14:05:11;;;;;;;11.07;7.00;;;6.70;1.00;;;;;;5051539;28;20480;-59
2022/01/23 14:07:44;;;;;;;6.70;5.83;;;6.60;1.00;;;;;;5056415;28;20805;-60
2022/01/23 14:10:15;;;;;;;19.27;13.50;;;6.60;1.00;;;;;;5056326;28;20487;-59
2022/01/23 14:12:43;;;;;;;35.43;24.43;;;6.60;1.00;;;;;;5060183;28;20444;-60
2022/01/23 14:15:16;;;;;;;12.60;9.23;;;6.60;1.00;;;;;;5057193;28;20458;-61
2022/01/23 14:17:43;;;;;;;24.20;17.47;;;6.60;1.00;;;;;;5058170;28;20853;-59
2022/01/23 14:20:17;;;;;;;11.40;8.70;;;6.60;1.00;;;;;;5054330;28;20513;-60
2022/01/23 14:22:48;;;;;;;24.13;18.23;;;6.60;1.00;;;;;;5057819;28;20489;-60
2022/01/23 14:25:17;;;;;;;19.73;14.10;;;6.60;1.00;;;;;;5055696;28;20876;-58
2022/01/23 14:28:00;;;;;;;11.17;7.00;;;6.60;1.00;;;;;;5057516;28;20900;-59
2022/01/23 14:30:29;;;;;;;9.50;8.30;;;6.60;1.00;;;;;;5057792;28;20486;-60
2022/01/23 14:33:05;;;;;;;25.97;19.60;;;6.60;1.00;;;;;;5057915;28;20463;-60
2022/01/23 14:35:34;;;;;;;22.30;18.50;;;6.60;1.00;;;;;;5057925;28;20440;-56
2022/01/23 14:38:12;;;;;;;19.83;16.60;;;6.50;1.00;;;;;;5057161;28;20462;-59
2022/01/23 14:41:02;;;;;;;28.30;24.30;;;6.50;1.00;;;;;;5056698;28;20853;-58
2022/01/23 14:43:37;;;;;;;16.10;13.77;;;6.50;1.00;;;;;;5058191;28;20527;-59
2022/01/23 14:46:09;;;;;;;9.23;7.27;;;6.40;1.00;;;;;;5058371;28;20447;-58
2022/01/23 14:48:40;;;;;;;16.03;10.47;;;6.40;1.00;;;;;;5058283;28;20441;-57
2022/01/23 14:51:15;;;;;;;13.57;10.87;;;6.40;1.00;;;;;;5058110;28;20494;-60
2022/01/23 14:53:42;;;;;;;12.83;10.10;;;6.30;1.00;;;;;;5057273;28;20754;-57
2022/01/23 14:56:13;;;;;;;18.83;8.97;;;6.40;1.00;;;;;;5058267;28;20919;-58
2022/01/23 14:58:43;;;;;;;9.57;8.60;;;6.40;1.00;;;;;;5057986;28;20462;-58
2022/01/23 15:01:12;;;;;;;9.53;8.17;;;6.30;1.00;;;;;;5056939;28;20465;-61
2022/01/23 15:03:43;;;;;;;9.20;8.20;;;6.20;1.00;;;;;;5056646;28;20520;-60
2022/01/23 15:06:12;;;;;;;13.20;9.00;;;6.20;1.00;;;;;;5057093;28;20444;-61
2022/01/23 15:08:43;;;;;;;12.03;8.30;;;6.20;1.00;;;;;;5052071;28;20458;-59
2022/01/23 15:11:15;;;;;;;9.23;7.27;;;6.10;1.00;;;;;;5043204;28;20514;-61
2022/01/23 15:13:42;;;;;;;9.50;7.43;;;6.00;1.00;;;;;;5048857;28;20508;-61
2022/01/23 15:16:14;;;;;;;9.40;7.53;;;5.90;1.00;;;;;;5057412;28;20968;-60
2022/01/23 15:18:43;;;;;;;9.93;8.17;;;5.90;1.00;;;;;;5057741;28;20471;-61
2022/01/23 15:21:12;;;;;;;13.33;8.60;;;5.90;1.00;;;;;;5057721;28;20458;-59
2022/01/23 15:23:41;;;;;;;14.70;10.30;;;5.90;1.00;;;;;;5056439;28;20518;-61
2022/01/23 15:26:14;;;;;;;17.30;11.27;;;5.90;1.00;;;;;;5057619;28;20466;-57
2022/01/23 15:28:41;;;;;;;16.00;11.00;;;5.90;16.60;;;;;;5057773;28;20474;-60
2022/01/23 15:31:09;;;;;;;14.80;10.57;;;5.80;99.90;;;;;;5057802;28;20475;-60
2022/01/23 15:33:38;;;;;;;12.33;10.00;;;5.80;99.90;;;;;;5057493;28;20906;-60
2022/01/23 15:36:05;;;;;;;8.90;8.00;;;5.70;76.80;;;;;;5061310;28;20561;-61
2022/01/23 15:38:41;;;;;;;10.83;7.37;;;5.60;6.30;;;;;;5057752;28;20466;-61
2022/01/23 15:41:08;;;;;;;8.97;7.27;;;5.60;1.00;;;;;;5057210;28;20469;-59
2022/01/23 15:43:35;;;;;;;10.27;7.80;;;5.60;1.00;;;;;;5057023;28;20462;-61
2022/01/23 15:46:03;;;;;;;8.90;7.20;;;5.60;1.00;;;;;;5056792;28;20968;-61